Time;durP1;ratioP1;P1;durP2;ratioP2;P2;SDS_P1;SDS_P2;PMS_P1;PMS_P2;Temp;Humidity;BMP_temperature;BMP_pressure;BME280_temperature;BME280_humidity;BME280_pressure;Samples;Min_cycle;Max_cycle;Signal;HPM_P1;HPM_P2
2021/10/23 00:00:36;;;;;;;3.70;0.80;;;7.10;99.90;;;;;;2584908;46;20026;31
2021/10/23 00:03:04;;;;;;;2.90;0.80;;;7.10;99.90;;;;;;2584644;46;20040;31
2021/10/23 00:05:33;;;;;;;5.00;1.00;;;7.10;99.90;;;;;;2584198;54;20026;31
2021/10/23 00:08:02;;;;;;;8.25;1.75;;;7.00;99.90;;;;;;2584789;46;20054;31
2021/10/23 00:10:33;;;;;;;3.80;0.60;;;7.00;99.90;;;;;;2584459;54;20922;31
2021/10/23 00:13:02;;;;;;;3.00;0.70;;;6.90;99.90;;;;;;2584493;54;20943;31
2021/10/23 00:15:32;;;;;;;4.95;1.00;;;6.80;99.90;;;;;;2584793;46;20023;31
2021/10/23 00:18:02;;;;;;;4.68;0.77;;;6.80;99.90;;;;;;2587114;39;21254;31
2021/10/23 00:20:31;;;;;;;1.95;0.90;;;6.70;99.90;;;;;;2584979;46;20053;31
2021/10/23 00:23:00;;;;;;;3.60;0.20;;;6.70;99.90;;;;;;2584720;46;20911;31
2021/10/23 00:25:31;;;;;;;6.10;0.70;;;6.60;99.90;;;;;;2584875;46;21001;31
2021/10/23 00:28:00;;;;;;;5.67;0.47;;;6.60;99.90;;;;;;2583963;54;20030;31
2021/10/23 00:30:29;;;;;;;3.78;0.77;;;6.50;99.90;;;;;;2584939;46;20034;31
2021/10/23 00:33:02;;;;;;;4.90;0.60;;;6.60;99.90;;;;;;2584746;46;21517;31
2021/10/23 00:35:33;;;;;;;4.00;0.52;;;6.50;99.90;;;;;;2584939;46;20131;31
2021/10/23 00:38:02;;;;;;;4.55;0.80;;;6.40;99.90;;;;;;2585028;46;20034;31
2021/10/23 00:40:31;;;;;;;3.10;0.55;;;6.50;99.90;;;;;;2584125;54;20072;31
2021/10/23 00:43:00;;;;;;;5.88;0.82;;;6.40;99.90;;;;;;2625719;39;21499;31
2021/10/23 00:45:31;;;;;;;7.18;1.00;;;6.40;99.90;;;;;;2584212;54;20081;31
2021/10/23 00:48:00;;;;;;;4.77;1.37;;;6.30;99.90;;;;;;2584960;46;20947;31
2021/10/23 00:50:30;;;;;;;2.67;1.17;;;6.30;99.90;;;;;;2584474;54;20081;31
2021/10/23 00:52:59;;;;;;;6.75;1.77;;;6.30;99.90;;;;;;2584693;46;20993;31
2021/10/23 00:55:30;;;;;;;5.30;1.75;;;6.30;99.90;;;;;;2584208;54;20030;31
2021/10/23 00:57:59;;;;;;;4.00;1.30;;;6.30;99.90;;;;;;2584718;46;20085;31
2021/10/23 01:00:30;;;;;;;7.47;1.50;;;6.20;99.90;;;;;;2584636;47;20905;31
2021/10/23 01:03:01;;;;;;;5.30;1.50;;;6.20;99.90;;;;;;2584508;47;20101;31
2021/10/23 01:05:30;;;;;;;5.45;1.55;;;6.20;99.90;;;;;;2584889;47;20266;31
2021/10/23 01:08:01;;;;;;;8.15;1.55;;;6.10;99.90;;;;;;2584213;54;20834;31
2021/10/23 01:10:30;;;;;;;6.75;1.48;;;6.10;99.90;;;;;;2584866;47;20022;31
2021/10/23 01:12:58;;;;;;;5.90;1.20;;;6.10;99.90;;;;;;2587259;39;21513;31
2021/10/23 01:15:30;;;;;;;6.43;1.40;;;6.10;99.90;;;;;;2584758;47;20887;31
2021/10/23 01:18:01;;;;;;;5.03;1.33;;;6.10;99.90;;;;;;2584796;47;20030;31
2021/10/23 01:20:32;;;;;;;6.72;1.27;;;6.00;99.90;;;;;;2584046;47;20038;31
2021/10/23 01:23:01;;;;;;;3.85;1.25;;;6.10;99.90;;;;;;2583942;54;20899;31
2021/10/23 01:25:31;;;;;;;2.67;0.93;;;6.00;99.90;;;;;;2584537;47;20999;31
2021/10/23 01:28:02;;;;;;;5.50;1.45;;;6.00;99.90;;;;;;2584657;47;20110;31
2021/10/23 01:30:31;;;;;;;5.27;1.30;;;6.00;99.90;;;;;;2584229;54;20919;31
2021/10/23 01:33:02;;;;;;;7.50;1.65;;;6.00;99.90;;;;;;2584009;54;20026;31
2021/10/23 01:35:31;;;;;;;5.60;1.00;;;6.00;99.90;;;;;;2584855;47;20046;31
2021/10/23 01:38:00;;;;;;;7.17;1.60;;;6.00;99.90;;;;;;2584522;47;20908;31
2021/10/23 01:40:34;;;;;;;2.97;1.00;;;6.00;99.90;;;;;;2584512;47;20889;31
2021/10/23 01:43:04;;;;;;;5.50;0.97;;;6.00;99.90;;;;;;2584449;47;20027;31
2021/10/23 01:45:35;;;;;;;8.20;1.10;;;6.00;99.90;;;;;;2584644;47;20030;31
2021/10/23 01:48:06;;;;;;;7.93;1.30;;;6.00;99.90;;;;;;2584001;54;20947;31
2021/10/23 01:50:36;;;;;;;8.23;1.80;;;6.00;99.90;;;;;;2583984;54;20136;31
2021/10/23 01:53:07;;;;;;;5.80;1.30;;;5.90;99.90;;;;;;2584037;54;20948;31
2021/10/23 01:55:38;;;;;;;5.40;0.95;;;6.00;99.90;;;;;;2611246;31;21521;31
2021/10/23 01:58:08;;;;;;;5.55;1.13;;;6.00;99.90;;;;;;2584769;54;20030;31
2021/10/23 02:00:37;;;;;;;6.47;1.63;;;6.10;99.90;;;;;;2585445;46;20925;31
2021/10/23 02:03:08;;;;;;;5.22;2.08;;;6.00;99.90;;;;;;2585203;46;20026;31
2021/10/23 02:05:39;;;;;;;5.90;1.45;;;6.10;99.90;;;;;;2584804;54;20709;31
2021/10/23 02:08:08;;;;;;;5.15;1.65;;;6.10;99.90;;;;;;2584796;54;20033;31
2021/10/23 02:10:37;;;;;;;5.10;1.40;;;6.10;99.90;;;;;;2585166;46;20038;31
2021/10/23 02:13:06;;;;;;;6.60;2.15;;;6.10;99.90;;;;;;2584745;54;20082;31
2021/10/23 02:15:35;;;;;;;5.13;1.20;;;6.00;99.90;;;;;;2587173;39;21307;31
2021/10/23 02:18:04;;;;;;;7.30;1.60;;;6.00;99.90;;;;;;2585321;46;20938;31
2021/10/23 02:20:34;;;;;;;8.93;1.57;;;6.10;99.90;;;;;;2584602;54;20951;31
2021/10/23 02:23:04;;;;;;;12.63;1.83;;;6.10;99.90;;;;;;2585308;46;20039;31
